地図

経路データ

SID SEASON NUMBER BASIN SUBBASIN NAME ISO_TIME NATURE LAT LON WMO_WIND WMO_PRES WMO_AGENCY TRACK_TYPE DIST2LAND LANDFALL IFLAG USA_AGENCY USA_ATCF_ID USA_LAT USA_LON USA_RECORD USA_STATUS USA_WIND USA_PRES USA_SSHS USA_R34_NE USA_R34_SE USA_R34_SW USA_R34_NW USA_R50_NE USA_R50_SE USA_R50_SW USA_R50_NW USA_R64_NE USA_R64_SE USA_R64_SW USA_R64_NW USA_POCI USA_ROCI USA_RMW USA_EYE TOKYO_LAT TOKYO_LON TOKYO_GRADE TOKYO_WIND TOKYO_PRES TOKYO_R50_DIR TOKYO_R50_LONG TOKYO_R50_SHORT TOKYO_R30_DIR TOKYO_R30_LONG TOKYO_R30_SHORT TOKYO_LAND CMA_LAT CMA_LON CMA_CAT CMA_WIND CMA_PRES HKO_LAT HKO_LON HKO_CAT HKO_WIND HKO_PRES NEWDELHI_LAT NEWDELHI_LON NEWDELHI_GRADE NEWDELHI_WIND NEWDELHI_PRES NEWDELHI_CI NEWDELHI_DP NEWDELHI_POCI REUNION_LAT REUNION_LON REUNION_TYPE REUNION_WIND REUNION_PRES REUNION_TNUM REUNION_CI REUNION_RMW REUNION_R34_NE REUNION_R34_SE REUNION_R34_SW REUNION_R34_NW REUNION_R50_NE REUNION_R50_SE REUNION_R50_SW REUNION_R50_NW REUNION_R64_NE REUNION_R64_SE REUNION_R64_SW REUNION_R64_NW BOM_LAT BOM_LON BOM_TYPE BOM_WIND BOM_PRES BOM_TNUM BOM_CI BOM_RMW BOM_R34_NE BOM_R34_SE BOM_R34_SW BOM_R34_NW BOM_R50_NE BOM_R50_SE BOM_R50_SW BOM_R50_NW BOM_R64_NE BOM_R64_SE BOM_R64_SW BOM_R64_NW BOM_ROCI BOM_POCI BOM_EYE BOM_POS_METHOD BOM_PRES_METHOD NADI_LAT NADI_LON NADI_CAT NADI_WIND NADI_PRES WELLINGTON_LAT WELLINGTON_LON WELLINGTON_WIND WELLINGTON_PRES DS824_LAT DS824_LON DS824_STAGE DS824_WIND DS824_PRES TD9636_LAT TD9636_LON TD9636_STAGE TD9636_WIND TD9636_PRES TD9635_LAT TD9635_LON TD9635_WIND TD9635_PRES TD9635_ROCI NEUMANN_LAT NEUMANN_LON NEUMANN_CLASS NEUMANN_WIND NEUMANN_PRES MLC_LAT MLC_LON MLC_CLASS MLC_WIND MLC_PRES USA_GUST BOM_GUST BOM_GUST_PER REUNION_GUST REUNION_GUST_PER USA_SEAHGT USA_SEARAD_NE USA_SEARAD_SE USA_SEARAD_SW USA_SEARAD_NW STORM_SPEED STORM_DIR
1935315N09087 1935 68 NI BB NOT_NAMED 1935-11-11 00:00:00 TS 8.70000 86.7000 main 553 542 _________O____ -1 8.70000 86.7000 TC 30 2 304
1935315N09087 1935 68 NI BB NOT_NAMED 1935-11-11 03:00:00 TS 8.76668 86.5984 main 545 534 _________PO___ -1 8.80002 86.5475 TC 30 8.70000 86.7000 1 3 305
1935315N09087 1935 68 NI BB NOT_NAMED 1935-11-11 06:00:00 TS 8.86063 86.4638 main 537 516 _________OP___ -1 8.90000 86.4000 TC 30 8.80157 86.5594 1 3 305
1935315N09087 1935 68 NI BB NOT_NAMED 1935-11-11 09:00:00 TS 8.95821 86.3250 main 519 509 _________PP___ -1 8.99998 86.2575 TC 30 8.90250 86.4150 1 3 304
1935315N09087 1935 68 NI BB NOT_NAMED 1935-11-11 12:00:00 TS 9.05109 86.1816 main 512 492 _________OP___ -1 9.10000 86.1000 TC 30 9.00218 86.2631 1 4 301
1935315N09087 1935 68 NI BB NOT_NAMED 1935-11-11 15:00:00 TS 9.15376 85.9963 main 495 475 _________PO___ -1 9.20752 85.8925 TC 30 9.10000 86.1000 1 4 298
1935315N09087 1935 68 NI BB NOT_NAMED 1935-11-11 18:00:00 TS 9.24720 85.8128 main 475 469 _________OP___ -1 9.30000 85.7000 TC 30 9.19441 85.9256 1 4 297
1935315N09087 1935 68 NI BB NOT_NAMED 1935-11-11 21:00:00 TS 9.32252 85.6625 main 469 459 _________PP___ -1 9.36499 85.5700 TC 30 9.28005 85.7550 1 3 297
1935315N09087 1935 68 NI BB NOT_NAMED 1935-11-12 00:00:00 TS 9.37533 85.5535 main 464 454 _________OP___ -1 9.40000 85.5000 TC 30 9.35066 85.6069 1 2 296
1935315N09087 1935 68 NI BB NOT_NAMED 1935-11-12 03:00:00 TS 9.40375 85.4925 main 454 454 _________PO___ -1 9.40749 85.4850 TC 30 9.40000 85.5000 1 1 294
1935315N09087 1935 68 NI BB NOT_NAMED 1935-11-12 06:00:00 TS 9.41076 85.4784 main 454 454 _________OP___ -1 9.40000 85.5000 TC 30 9.42152 85.4568 1 0 0
1935315N09087 1935 68 NI BB NOT_NAMED 1935-11-12 09:00:00 TS 9.41123 85.4775 main 454 454 _________PP___ -1 9.40000 85.5000 TC 30 9.42246 85.4550 1 0 0
1935315N09087 1935 68 NI BB NOT_NAMED 1935-11-12 12:00:00 TS 9.40608 85.4878 main 454 454 _________OP___ -1 9.40000 85.5000 TC 30 9.41216 85.4756 1 0 0
1935315N09087 1935 68 NI BB NOT_NAMED 1935-11-12 15:00:00 TS 9.40000 85.5000 main 454 454 _________PO___ -1 9.40000 85.5000 TC 30 9.40000 85.5000 1 0 114
1935315N09087 1935 68 NI BB NOT_NAMED 1935-11-12 18:00:00 TS 9.38978 85.5304 main 454 454 _________OP___ -1 9.40000 85.5000 TC 30 9.37955 85.5608 1 1 109
1935315N09087 1935 68 NI BB NOT_NAMED 1935-11-12 21:00:00 TS 9.37360 85.5786 main 464 464 _________PP___ -1 9.38496 85.5450 TC 30 9.36225 85.6123 1 0 0
1935315N09087 1935 68 NI BB NOT_NAMED 1935-11-13 00:00:00 TS 9.38191 85.5538 main 464 444 _________OP___ -1 9.40000 85.5000 TC 30 9.36382 85.6076 1 2 288
1935315N09087 1935 68 NI BB NOT_NAMED 1935-11-13 03:00:00 TS 9.43874 85.3837 main 444 420 _________PO___ -1 9.47748 85.2675 TC 31 9.40000 85.5000 1 5 289
1935315N09087 1935 68 NI BB NOT_NAMED 1935-11-13 06:00:00 TS 9.54248 85.0806 main 420 390 _________OP___ -1 9.60000 84.9000 TC 32 9.48496 85.2612 1 7 289
1935315N09087 1935 68 NI BB NOT_NAMED 1935-11-13 09:00:00 TS 9.67368 84.7012 main 390 355 _________PP___ -1 9.74246 84.4875 TC 33 9.60490 84.9149 1 9 289
1935315N09087 1935 68 NI BB NOT_NAMED 1935-11-13 12:00:00 TS 9.82368 84.2431 main 345 312 _________OP___ -1 9.90000 84.0000 TC 34 9.74737 84.4861 1 10 288
1935315N09087 1935 68 NI BB NOT_NAMED 1935-11-13 15:00:00 TS 9.97499 83.7325 main 309 269 _________PO___ -1 10.0500 83.4650 TC 41 9.90000 84.0000 2 11 286
1935315N09087 1935 68 NI BB NOT_NAMED 1935-11-13 18:00:00 TS 10.1360 83.1679 main 269 226 _________OP___ -1 10.2000 82.9000 TC 49 10.0719 83.4358 2 12 286
1935315N09087 1935 68 NI BB NOT_NAMED 1935-11-13 21:00:00 TS 10.3093 82.5616 main 226 188 _________PP___ -1 10.3726 82.2901 TC 56 10.2460 82.8332 2 12 286
1935315N09087 1935 68 NI BB NOT_NAMED 1935-11-14 00:00:00 TS 10.4485 82.0319 main 180 166 _________OP___ -1 10.5000 81.8000 TC 64 10.3970 82.2639 2 9 284
1935315N09087 1935 68 NI BB NOT_NAMED 1935-11-14 03:00:00 TS 10.5149 81.6950 main 166 160 _________PO___ -1 10.5298 81.5899 TC 55 10.5000 81.8000 4 5 278
1935315N09087 1935 68 NI BB NOT_NAMED 1935-11-14 06:00:00 TS 10.5122 81.5519 main 160 154 _________OP___ -1 10.5000 81.5000 TC 47 10.5243 81.6038 4 2 260
1935315N09087 1935 68 NI BB NOT_NAMED 1935-11-14 09:00:00 TS 10.4755 81.4623 main 154 133 _________PP___ -1 10.4498 81.4175 TC 38 10.5011 81.5072 4 3 251
1935315N09087 1935 68 NI BB NOT_NAMED 1935-11-14 12:00:00 TS 10.4262 81.3035 main 133 109 _________OP___ -1 10.4000 81.2000 TC 30 10.4524 81.4070 4 5 262
1935315N09087 1935 68 NI BB NOT_NAMED 1935-11-14 15:00:00 TS 10.4001 80.9300 main 102 54 _________PO___ -1 10.4002 80.6600 TC 30 10.4000 81.2000 1 9 268
1935315N09087 1935 68 NI BB NOT_NAMED 1935-11-14 18:00:00 TS 10.3878 80.3634 main 54 0 _________OP___ -1 10.4000 80.0000 TC 30 10.3757 80.7268 1 11 267
1935315N09087 1935 68 NI BB NOT_NAMED 1935-11-14 21:00:00 TS 10.3505 79.7837 main 0 0 _________PP___ -1 10.3499 79.4275 TC 30 10.3510 80.1399 1 11 266
1935315N09087 1935 68 NI BB NOT_NAMED 1935-11-15 00:00:00 TS 10.3128 79.2040 main 0 0 _________OP___ -1 10.3000 78.9000 TC 30 10.3257 79.5080 1 11 267
1935315N09087 1935 68 NI BB NOT_NAMED 1935-11-15 03:00:00 TS 10.2999 78.6675 main 0 0 _________PO___ -1 10.2999 78.4351 TC 30 10.3000 78.9000 1 10 269
1935315N09087 1935 68 NI BB NOT_NAMED 1935-11-15 06:00:00 TS 10.2873 78.2071 main 0 0 _________OP___ -1 10.3000 78.0000 TC 30 10.2745 78.4141 1 9 267
1935315N09087 1935 68 NI AS NOT_NAMED 1935-11-15 09:00:00 TS 10.2497 77.7563 main 0 0 _________PP___ -1 10.2499 77.5499 TC 30 10.2494 77.9626 1 9 265
1935315N09087 1935 68 NI AS NOT_NAMED 1935-11-15 12:00:00 TS 10.2123 77.3149 main 0 0 _________OP___ -1 10.2000 77.1000 TC 30 10.2246 77.5297 1 9 267
1935315N09087 1935 68 NI AS NOT_NAMED 1935-11-15 15:00:00 TS 10.2000 76.8750 main 0 0 _________PO___ -1 10.1999 76.6501 TC 30 10.2000 77.1000 1 9 269
1935315N09087 1935 68 NI AS NOT_NAMED 1935-11-15 18:00:00 TS 10.1934 76.4373 main 0 0 _________OP___ -1 10.2000 76.2000 TC 30 10.1867 76.6745 1 9 268
1935315N09087 1935 68 NI AS NOT_NAMED 1935-11-15 21:00:00 TS 10.1683 76.0089 main 21 21 _________PP___ -1 10.1648 75.7725 TC 30 10.1718 76.2452 1 9 265
1935315N09087 1935 68 NI AS NOT_NAMED 1935-11-16 00:00:00 TS 10.1230 75.5467 main 76 76 _________OP___ -1 10.1000 75.3000 TC 30 10.1460 75.7933 1 10 263
1935315N09087 1935 68 NI AS NOT_NAMED 1935-11-16 03:00:00 TS 10.0538 75.0112 main 125 125 _________PO___ -1 10.0075 74.7225 TC 30 10.1000 75.3000 1 11 262
1935315N09087 1935 68 NI AS NOT_NAMED 1935-11-16 06:00:00 TS 9.96074 74.4256 main 187 187 _________OP___ -1 9.90000 74.1000 TC 30 10.0215 74.7511 1 12 261
1935315N09087 1935 68 NI AS NOT_NAMED 1935-11-16 09:00:00 TS 9.86110 73.8337 main 251 251 _________PP___ -1 9.79985 73.5075 TC 30 9.92234 74.1598 1 12 260
1935315N09087 1935 68 NI AS NOT_NAMED 1935-11-16 12:00:00 TS 9.75601 73.2193 main 316 316 _________OP___ -1 9.70000 72.9000 TC 30 9.81202 73.5386 1 13 260
1935315N09087 1935 68 NI AS NOT_NAMED 1935-11-16 15:00:00 TS 9.64996 72.5788 main 385 385 _________PO___ -1 9.59992 72.2575 TC 30 9.70000 72.9000 1 12 261
1935315N09087 1935 68 NI AS NOT_NAMED 1935-11-16 18:00:00 TS 9.55365 71.9740 main 441 441 _________OP___ -1 9.50000 71.6000 TC 30 9.59389 72.2544 1 12 261
1935315N09087 1935 68 NI AS NOT_NAMED 1935-11-16 21:00:00 TS 9.45610 71.3420 main 510 510 _________PP___ -1 9.40022 70.9474 TC 30 9.49336 71.6050 1 12 261
1935315N09087 1935 68 NI AS NOT_NAMED 1935-11-17 00:00:00 TS 9.36410 70.7354 main 571 571 _________OP___ -1 9.30000 70.3000 TC 30 9.39615 70.9530 1 10 261
1935315N09087 1935 68 NI AS NOT_NAMED 1935-11-17 03:00:00 NR 9.30000 70.3000 main 615 __________O___ -1 TC 9.30000 70.3000 1 9 262

IBTrACS Databaseについて

本データベースは、米国NOAAが公開する1842年以降の世界の熱帯低気圧のベストトラックデータアーカイブInternational Best Track Archive for Climate Stewardship (IBTrACS)を、ウェブで閲覧しやすい形式に変換したものです。

最終更新日:2021-12-03